Time;durP1;ratioP1;P1;durP2;ratioP2;P2;SDS_P1;SDS_P2;PMS_P1;PMS_P2;Temp;Humidity;BMP_temperature;BMP_pressure;BME280_temperature;BME280_humidity;BME280_pressure;Samples;Min_cycle;Max_cycle;Signal;HPM_P1;HPM_P2
2024/03/18 00:00:22;;;;;;;5.82;1.40;;;12.90;67.90;;;8.25;100.00;95617.81;4969179;28;20042;-55
2024/03/18 00:02:54;;;;;;;3.45;2.25;;;12.90;67.90;;;8.24;100.00;95619.66;4952176;28;20057;-51
2024/03/18 00:05:22;;;;;;;2.75;1.50;;;12.90;67.80;;;8.20;100.00;95618.53;4970226;28;20057;-54
2024/03/18 00:07:50;;;;;;;10.98;1.75;;;12.90;67.70;;;8.21;100.00;95624.66;4964334;28;20018;-57
2024/03/18 00:10:18;;;;;;;3.60;1.85;;;12.90;67.60;;;8.26;100.00;95616.75;4970290;28;20026;-58
2024/03/18 00:12:45;;;;;;;3.47;1.50;;;12.90;67.60;;;8.25;100.00;95610.66;4970507;28;20389;-54
2024/03/18 00:15:16;;;;;;;3.53;1.27;;;12.90;67.60;;;8.30;100.00;95609.88;4969369;28;20034;-54
2024/03/18 00:17:43;;;;;;;4.65;1.38;;;12.90;67.50;;;8.31;100.00;95620.28;4967523;28;20436;-53
2024/03/18 00:20:12;;;;;;;2.70;1.85;;;12.90;67.50;;;8.33;100.00;95609.38;4968336;28;20141;-52
2024/03/18 00:22:43;;;;;;;3.08;1.38;;;13.00;67.50;;;8.37;100.00;95615.00;4969126;28;20030;-55
2024/03/18 00:25:13;;;;;;;1.50;1.02;;;13.00;67.60;;;8.37;100.00;95610.50;4965510;28;20033;-53
2024/03/18 00:27:39;;;;;;;5.68;1.40;;;13.00;67.50;;;8.41;100.00;95605.53;4968080;28;20174;-53
2024/03/18 00:30:11;;;;;;;3.97;1.30;;;13.00;67.40;;;8.42;100.00;95618.53;4970543;28;20049;-55
2024/03/18 00:32:41;;;;;;;1.75;1.15;;;13.00;67.30;;;8.43;100.00;95612.19;4965496;28;20452;-56
2024/03/18 00:35:09;;;;;;;2.63;1.15;;;13.00;67.20;;;8.45;100.00;95611.94;4951169;28;20034;-55
2024/03/18 00:37:37;;;;;;;1.27;1.10;;;13.00;67.10;;;8.47;100.00;95609.84;4969715;28;20026;-53
2024/03/18 00:40:04;;;;;;;2.35;1.27;;;13.00;67.10;;;8.47;100.00;95609.84;4952091;28;20029;-51
2024/03/18 00:42:30;;;;;;;2.20;1.30;;;13.00;67.00;;;8.47;100.00;95600.03;4968774;28;20049;-54
2024/03/18 00:44:56;;;;;;;1.70;1.35;;;13.10;67.00;;;8.47;100.00;95596.56;4969322;28;20030;-53
2024/03/18 00:47:21;;;;;;;2.80;1.10;;;13.10;67.00;;;8.45;100.00;95591.50;4969725;28;20049;-55
2024/03/18 00:49:47;;;;;;;1.73;1.15;;;13.10;67.00;;;8.44;100.00;95587.25;4969079;28;20042;-57
2024/03/18 00:52:13;;;;;;;6.45;1.35;;;13.10;66.80;;;8.41;100.00;95585.09;4967056;28;20489;-53
2024/03/18 00:54:39;;;;;;;2.83;1.35;;;13.10;66.80;;;8.35;100.00;95578.91;4952815;28;20026;-55
2024/03/18 00:57:05;;;;;;;2.22;1.40;;;13.10;66.80;;;8.35;100.00;95573.59;4968809;28;20026;-56
2024/03/18 00:59:31;;;;;;;3.67;1.35;;;13.00;66.80;;;8.35;100.00;95580.75;4969977;28;20081;-53
2024/03/18 01:01:57;;;;;;;4.57;1.30;;;13.00;66.80;;;8.28;100.00;95582.81;4967795;28;20030;-55
2024/03/18 01:04:23;;;;;;;3.05;1.30;;;13.00;66.80;;;8.30;100.00;95576.22;4969938;28;20102;-51
2024/03/18 01:06:49;;;;;;;5.03;1.33;;;13.00;66.90;;;8.29;100.00;95571.94;4967485;28;20022;-54
2024/03/18 01:09:16;;;;;;;3.60;1.30;;;12.90;66.90;;;8.29;100.00;95573.78;4969113;28;20026;-52
2024/03/18 01:11:42;;;;;;;2.45;0.95;;;12.90;66.90;;;8.27;100.00;95567.91;4966279;28;20034;-52
2024/03/18 01:14:08;;;;;;;2.22;1.23;;;12.90;66.90;;;8.27;100.00;95570.56;4967053;28;20635;-55
2024/03/18 01:16:34;;;;;;;2.17;1.30;;;12.90;66.90;;;8.28;100.00;95566.88;4968121;28;20034;-51
2024/03/18 01:19:00;;;;;;;3.47;1.20;;;12.90;66.90;;;8.26;100.00;95564.47;4969936;28;20026;-52
2024/03/18 01:21:26;;;;;;;1.48;1.08;;;12.90;67.00;;;8.23;100.00;95559.66;4949798;28;20034;-51
2024/03/18 01:23:52;;;;;;;1.20;1.08;;;12.90;67.00;;;8.23;100.00;95549.06;4969889;28;20090;-51
2024/03/18 01:26:20;;;;;;;5.03;1.33;;;12.90;67.10;;;8.22;100.00;95549.31;4968322;28;20469;-50
2024/03/18 01:28:46;;;;;;;2.80;1.25;;;12.90;67.10;;;8.21;100.00;95548.53;4967728;28;20062;-53
2024/03/18 01:31:13;;;;;;;4.22;1.70;;;12.90;68.00;;;8.19;100.00;95549.81;4969560;28;20061;-53
2024/03/18 01:33:39;;;;;;;1.65;1.20;;;12.90;67.20;;;8.19;100.00;95547.97;4972929;28;20113;-55
2024/03/18 01:36:05;;;;;;;4.07;1.33;;;12.80;67.20;;;8.18;100.00;95546.38;4952415;28;20122;-51
2024/03/18 01:38:35;;;;;;;2.65;1.30;;;12.80;67.30;;;8.18;100.00;95537.56;4950018;28;20054;-51
2024/03/18 01:41:02;;;;;;;1.45;1.20;;;12.80;67.40;;;8.17;100.00;95539.44;4973195;28;20058;-52
2024/03/18 01:43:28;;;;;;;2.72;1.30;;;12.80;67.40;;;8.17;100.00;95534.13;4995828;23;20112;-53
2024/03/18 01:45:55;;;;;;;2.45;1.38;;;12.80;67.40;;;8.16;100.00;95529.88;4992750;28;20037;-57
2024/03/18 01:48:21;;;;;;;4.35;1.25;;;12.80;67.40;;;8.15;100.00;95525.63;4991879;28;20025;-56
2024/03/18 01:50:47;;;;;;;4.45;1.30;;;12.80;67.40;;;8.15;100.00;95527.47;4989779;28;20444;-54
2024/03/18 01:53:14;;;;;;;2.95;1.30;;;12.80;67.50;;;8.15;100.00;95522.16;4984044;28;20045;-55
2024/03/18 01:55:42;;;;;;;1.92;1.10;;;12.80;67.50;;;8.13;100.00;95518.97;4975915;28;20025;-52
2024/03/18 01:58:09;;;;;;;3.50;1.20;;;12.80;67.50;;;8.12;100.00;95512.88;4971675;28;20137;-58
2024/03/18 02:00:37;;;;;;;3.53;2.08;;;12.80;67.50;;;8.12;100.00;95512.88;4976006;28;20026;-55
2024/03/18 02:03:06;;;;;;;1.92;1.30;;;12.80;67.60;;;8.14;100.00;95515.25;4966017;28;20096;-54
2024/03/18 02:05:35;;;;;;;5.47;1.58;;;12.80;67.70;;;8.10;100.00;95514.97;4976818;28;20030;-56
2024/03/18 02:08:01;;;;;;;3.15;1.45;;;12.80;67.60;;;8.10;100.00;95522.91;4972557;28;20049;-52
2024/03/18 02:10:27;;;;;;;3.30;1.40;;;12.80;67.60;;;8.10;100.00;95514.97;4977845;28;20041;-56
2024/03/18 02:13:04;;;;;;;1.90;1.50;;;12.80;67.70;;;8.12;100.00;95512.88;4972105;28;20022;-54
2024/03/18 02:15:32;;;;;;;1.88;1.60;;;12.80;67.80;;;8.13;100.00;95516.31;4972059;28;20038;-52
2024/03/18 02:17:59;;;;;;;3.03;1.60;;;12.80;67.80;;;8.14;100.00;95521.34;4973449;28;20497;-58
2024/03/18 02:20:27;;;;;;;2.92;1.63;;;12.80;67.80;;;8.16;100.00;95513.16;4974341;28;20038;-53
2024/03/18 02:22:53;;;;;;;5.13;1.75;;;12.80;67.80;;;8.17;100.00;95512.09;4974908;28;20037;-53
2024/03/18 02:25:20;;;;;;;4.47;1.95;;;12.80;67.80;;;8.13;100.00;95498.53;4973727;28;20026;-52
2024/03/18 02:27:47;;;;;;;1.88;1.42;;;12.80;67.80;;;8.16;100.00;95490.09;4972557;28;20050;-53
2024/03/18 02:30:15;;;;;;;3.72;1.30;;;12.80;67.80;;;8.17;100.00;95501.50;4973695;28;20021;-52
2024/03/18 02:32:42;;;;;;;3.70;1.40;;;12.80;67.80;;;8.14;100.00;95494.03;4974930;28;20432;-56
2024/03/18 02:35:13;;;;;;;9.45;1.75;;;12.80;67.80;;;8.16;100.00;95489.28;4971746;28;20022;-56
2024/03/18 02:37:39;;;;;;;3.22;1.50;;;12.80;67.80;;;8.16;100.00;95490.09;4971645;28;20026;-53
2024/03/18 02:40:08;;;;;;;6.78;2.35;;;12.80;67.80;;;8.17;100.00;95483.72;4971190;28;20060;-53
2024/03/18 02:42:37;;;;;;;2.85;1.50;;;12.90;67.80;;;8.17;100.00;95481.06;4970251;28;20057;-52
2024/03/18 02:45:08;;;;;;;1.92;1.65;;;12.90;67.90;;;8.17;100.00;95482.91;4969275;28;20108;-53
2024/03/18 02:47:38;;;;;;;6.28;1.92;;;12.80;67.90;;;8.17;100.00;95478.41;4970716;28;20488;-57
2024/03/18 02:50:08;;;;;;;3.45;1.70;;;12.80;68.70;;;8.17;100.00;95472.31;4970942;28;20038;-55
2024/03/18 02:52:39;;;;;;;3.28;1.70;;;12.90;68.00;;;8.18;100.00;95473.91;4969975;28;20075;-50
2024/03/18 02:55:06;;;;;;;4.43;2.08;;;12.80;68.00;;;8.16;100.00;95481.31;4971857;28;20030;-52
2024/03/18 02:57:32;;;;;;;2.00;1.80;;;12.90;68.00;;;8.15;100.00;95479.69;4970813;28;20069;-54
2024/03/18 02:59:59;;;;;;;3.40;2.10;;;12.80;67.90;;;8.17;100.00;95467.00;4971795;28;20049;-54
2024/03/18 03:02:26;;;;;;;4.22;2.03;;;12.80;68.00;;;8.17;100.00;95461.69;4970229;28;20039;-57
2024/03/18 03:04:52;;;;;;;5.30;2.10;;;12.80;68.00;;;8.15;100.00;95456.66;4971222;28;20030;-55
2024/03/18 03:07:18;;;;;;;3.15;2.03;;;12.80;68.00;;;8.10;100.00;95452.09;4971387;28;20052;-53
2024/03/18 03:09:44;;;;;;;3.92;1.80;;;12.80;68.10;;;8.10;100.00;95457.38;4970204;28;20022;-51
2024/03/18 03:12:10;;;;;;;6.20;2.40;;;12.80;68.10;;;8.08;100.00;95446.25;4970893;28;20064;-51
2024/03/18 03:14:36;;;;;;;3.70;2.15;;;12.70;68.20;;;8.04;100.00;95444.34;4970202;28;20512;-52
2024/03/18 03:17:02;;;;;;;5.28;2.60;;;12.70;68.20;;;8.04;100.00;95445.13;4971369;28;20423;-57
2024/03/18 03:19:27;;;;;;;3.15;2.25;;;12.70;68.30;;;7.99;100.00;95449.59;4971055;28;20026;-54
2024/03/18 03:21:53;;;;;;;2.83;2.05;;;12.70;68.40;;;8.04;100.00;95452.28;4969628;28;20030;-54
2024/03/18 03:24:19;;;;;;;4.05;1.75;;;12.70;68.50;;;8.03;100.00;95451.50;4970964;28;20046;-56
2024/03/18 03:26:46;;;;;;;4.53;2.00;;;12.60;68.50;;;8.06;100.00;95455.50;4970034;28;20104;-56
2024/03/18 03:29:12;;;;;;;4.95;2.55;;;12.60;68.60;;;8.07;100.00;95457.88;4970973;28;20516;-58
2024/03/18 03:31:37;;;;;;;7.65;2.08;;;12.60;68.70;;;8.08;100.00;95454.22;4970728;28;20022;-53
2024/03/18 03:34:03;;;;;;;2.92;2.22;;;12.60;68.80;;;8.07;100.00;95452.59;4969642;28;20423;-54
2024/03/18 03:36:30;;;;;;;5.32;2.40;;;12.60;68.90;;;8.07;100.00;95457.88;4970803;28;20113;-52
2024/03/18 03:38:56;;;;;;;3.42;2.33;;;12.60;68.90;;;8.06;100.00;95463.47;4970930;28;20026;-52
2024/03/18 03:41:21;;;;;;;6.55;2.88;;;12.60;69.00;;;8.04;100.00;95460.25;4970773;28;20484;-54
2024/03/18 03:43:48;;;;;;;6.55;2.88;;;12.60;69.00;;;8.06;100.00;95455.50;4970608;28;20125;-56
2024/03/18 03:46:14;;;;;;;4.25;2.92;;;12.60;69.00;;;8.05;100.00;95453.88;4968764;28;20054;-57
2024/03/18 03:48:40;;;;;;;10.02;3.78;;;12.60;69.10;;;8.05;100.00;95445.91;4970408;28;20076;-54
2024/03/18 03:51:05;;;;;;;10.15;3.25;;;12.60;69.10;;;8.04;100.00;95450.44;4969578;28;20484;-56
2024/03/18 03:53:31;;;;;;;7.25;3.50;;;12.60;69.10;;;8.01;100.00;95448.28;4970075;28;20461;-54
2024/03/18 03:55:57;;;;;;;9.25;3.50;;;12.60;69.20;;;8.01;100.00;95434.22;4969934;28;20946;-52
2024/03/18 03:58:28;;;;;;;8.82;3.55;;;12.60;70.00;;;7.90;100.00;95436.00;4966215;28;20037;-52
2024/03/18 04:00:54;;;;;;;8.32;3.50;;;12.60;69.30;;;7.94;100.00;95434.44;4968842;28;20034;-53
2024/03/18 04:03:23;;;;;;;7.20;3.63;;;12.50;69.30;;;7.94;100.00;95423.81;4970860;28;20045;-55
2024/03/18 04:05:55;;;;;;;6.07;3.47;;;12.50;69.50;;;7.91;100.00;95432.28;4971179;28;20092;-52
2024/03/18 04:08:24;;;;;;;4.43;3.25;;;12.50;69.50;;;7.88;100.00;95432.78;4971998;28;20556;-53
2024/03/18 04:10:51;;;;;;;6.78;3.65;;;12.50;69.60;;;7.89;100.00;95429.88;4972788;28;20045;-54
2024/03/18 04:13:17;;;;;;;6.65;4.28;;;12.50;69.70;;;7.89;100.00;95421.91;4972067;28;20030;-54
2024/03/18 04:15:45;;;;;;;10.77;4.20;;;12.50;69.70;;;7.92;100.00;95425.13;4972728;28;20026;-52
2024/03/18 04:18:12;;;;;;;5.45;3.53;;;12.50;69.80;;;7.89;100.00;95423.75;4972503;28;20381;-57
2024/03/18 04:20:39;;;;;;;6.80;3.60;;;12.50;69.90;;;7.87;100.00;95420.59;4970917;28;20439;-52
2024/03/18 04:23:05;;;;;;;11.70;3.65;;;12.40;69.80;;;7.87;100.00;95418.72;4974109;28;20121;-54
2024/03/18 04:25:35;;;;;;;6.90;3.83;;;12.40;69.90;;;7.87;100.00;95415.28;4972632;28;20492;-54
2024/03/18 04:28:02;;;;;;;7.47;3.15;;;12.40;69.90;;;7.87;100.00;95413.41;4974102;28;20034;-54
2024/03/18 04:30:30;;;;;;;7.80;3.63;;;12.40;70.00;;;7.87;100.00;95412.63;4971079;28;20022;-57
2024/03/18 04:32:56;;;;;;;4.97;3.40;;;12.40;70.00;;;7.89;100.00;95408.66;4970872;28;20026;-54
2024/03/18 04:35:22;;;;;;;6.07;3.72;;;12.40;70.00;;;7.90;100.00;95409.47;4970291;28;20037;-56
2024/03/18 04:37:55;;;;;;;9.18;3.67;;;12.40;70.10;;;7.88;100.00;95390.34;4972906;28;20033;-56
2024/03/18 04:40:26;;;;;;;5.38;3.05;;;12.40;70.10;;;7.88;100.00;95400.97;4971381;28;20023;-54
2024/03/18 04:42:57;;;;;;;8.27;3.53;;;12.40;70.20;;;7.89;100.00;95405.19;4973905;28;20073;-56
2024/03/18 04:45:24;;;;;;;6.93;3.45;;;12.50;70.20;;;7.89;100.00;95397.25;4968994;28;20037;-55
2024/03/18 04:47:53;;;;;;;5.53;3.33;;;12.40;70.20;;;7.89;100.00;95399.91;4969572;28;20023;-51
2024/03/18 04:50:25;;;;;;;6.30;3.65;;;12.50;70.40;;;7.89;100.00;95386.63;4969270;28;20443;-51
2024/03/18 04:52:55;;;;;;;7.57;3.70;;;12.50;70.40;;;7.89;100.00;95383.97;4968541;28;20022;-51
2024/03/18 04:55:22;;;;;;;7.78;3.65;;;12.50;70.30;;;7.91;100.00;95387.19;4969962;28;20029;-53
2024/03/18 04:57:55;;;;;;;6.53;3.72;;;12.50;71.10;;;7.91;100.00;95384.53;4968584;28;20077;-52
2024/03/18 05:00:24;;;;;;;;;;;12.50;70.50;;;7.92;100.00;95390.63;4970729;28;20493;-55
2024/03/18 05:02:51;;;;;;;8.30;3.45;;;12.50;70.10;;;7.92;100.00;95385.34;4968255;28;19978;-52
2024/03/18 05:05:17;;;;;;;7.47;3.50;;;12.40;70.20;;;7.92;100.00;95383.47;4969986;28;20026;-51
2024/03/18 05:07:44;;;;;;;9.18;3.50;;;12.50;70.40;;;7.95;100.00;95384.84;4969221;28;20455;-53
2024/03/18 05:10:12;;;;;;;5.68;3.47;;;12.50;70.50;;;7.94;100.00;95378.72;4971181;28;20662;-54
2024/03/18 05:12:39;;;;;;;9.85;3.58;;;12.50;70.60;;;7.93;100.00;95371.84;4973389;28;20608;-52
2024/03/18 05:15:07;;;;;;;8.65;3.80;;;12.50;70.50;;;7.97;100.00;95375.56;4972973;28;20080;-52
2024/03/18 05:17:34;;;;;;;9.95;3.83;;;12.50;70.70;;;7.98;100.00;95369.22;4973201;28;20089;-53
2024/03/18 05:20:00;;;;;;;6.07;3.28;;;12.50;70.70;;;8.01;100.00;95362.59;4972381;28;20026;-54
2024/03/18 05:22:26;;;;;;;6.88;3.42;;;12.50;70.80;;;8.01;100.00;95357.28;4973582;28;20040;-53
2024/03/18 05:24:52;;;;;;;7.40;4.13;;;12.50;70.80;;;8.03;100.00;95361.31;4973248;28;20022;-51
2024/03/18 05:27:20;;;;;;;6.68;3.58;;;12.60;70.90;;;8.06;100.00;95354.69;4972302;28;20037;-52
2024/03/18 05:29:47;;;;;;;11.50;4.28;;;12.60;70.90;;;8.04;100.00;95352.28;4973382;28;20014;-53
2024/03/18 05:32:18;;;;;;;6.60;3.05;;;12.60;70.90;;;8.03;100.00;95358.66;4972247;28;20022;-55
2024/03/18 05:34:45;;;;;;;7.85;3.92;;;12.60;71.00;;;8.05;100.00;95355.72;4972682;28;20026;-55
2024/03/18 05:37:12;;;;;;;4.65;3.50;;;12.60;70.80;;;8.07;100.00;95353.63;4969457;28;20077;-57
2024/03/18 05:39:39;;;;;;;12.15;3.67;;;12.60;70.90;;;8.06;100.00;95350.19;4972299;28;20384;-56
2024/03/18 05:42:07;;;;;;;8.95;3.88;;;12.60;70.80;;;8.07;100.00;95351.78;4973127;28;20032;-56
2024/03/18 05:44:33;;;;;;;7.63;3.53;;;12.60;70.90;;;8.08;100.00;95352.56;4972903;28;20117;-54
2024/03/18 05:47:00;;;;;;;7.50;3.63;;;12.60;71.60;;;8.10;100.00;95350.47;4972580;28;20026;-52
2024/03/18 05:49:28;;;;;;;9.18;3.80;;;12.70;71.00;;;8.08;100.00;95348.09;4972937;28;20428;-51
2024/03/18 05:51:54;;;;;;;8.77;4.07;;;12.70;71.00;;;8.08;100.00;95347.25;4972174;28;20034;-53
2024/03/18 05:54:20;;;;;;;9.23;4.18;;;12.70;70.90;;;8.09;100.00;95349.69;4972770;28;20030;-51
2024/03/18 05:56:48;;;;;;;10.50;4.15;;;12.70;71.60;;;8.10;100.00;95343.31;4966589;28;20488;-52
2024/03/18 05:59:17;;;;;;;7.22;4.30;;;12.70;70.80;;;8.11;100.00;95350.22;4973595;28;20045;-53
2024/03/18 06:01:43;;;;;;;8.05;4.03;;;12.70;70.80;;;8.15;100.00;95349.69;4972604;28;20064;-54
2024/03/18 06:04:11;;;;;;;13.23;4.00;;;12.70;70.90;;;8.15;100.00;95345.22;4971742;28;20022;-52
2024/03/18 06:06:41;;;;;;;7.22;3.95;;;12.80;71.00;;;8.17;100.00;95352.91;4971996;28;20492;-53
2024/03/18 06:09:08;;;;;;;9.13;4.10;;;12.80;71.00;;;8.17;100.00;95352.91;4970487;28;20022;-56
2024/03/18 06:11:36;;;;;;;7.00;3.67;;;12.80;70.90;;;8.17;100.00;95350.25;4972844;28;20445;-56
2024/03/18 06:14:03;;;;;;;7.75;3.85;;;12.80;70.90;;;8.20;100.00;95344.44;4971883;28;20030;-55
2024/03/18 06:16:28;;;;;;;8.15;3.67;;;12.80;70.90;;;8.17;100.00;95345.75;4974324;28;20084;-56
2024/03/18 06:18:54;;;;;;;7.65;3.95;;;12.80;70.90;;;8.21;100.00;95348.69;4972273;28;20026;-54
2024/03/18 06:21:27;;;;;;;11.00;3.75;;;12.90;71.00;;;8.20;100.00;95349.75;4970022;28;20072;-54
2024/03/18 06:23:59;;;;;;;7.38;4.18;;;12.90;71.00;;;8.22;100.00;95348.44;4972645;28;20041;-56
2024/03/18 06:26:25;;;;;;;9.50;4.32;;;12.90;71.00;;;8.23;100.00;95350.03;4971503;28;20026;-55
2024/03/18 06:28:51;;;;;;;8.05;4.30;;;12.90;71.00;;;8.23;100.00;95347.38;4971328;28;20038;-56
2024/03/18 06:31:17;;;;;;;7.82;4.20;;;12.90;71.00;;;8.23;100.00;95342.06;4968195;28;20480;-54
2024/03/18 06:33:48;;;;;;;7.68;4.57;;;12.90;71.00;;;8.26;100.00;95344.22;4970185;28;20022;-55
2024/03/18 06:36:14;;;;;;;6.70;4.10;;;12.90;71.00;;;8.24;100.00;95338.38;4970513;28;20026;-54
2024/03/18 06:38:41;;;;;;;7.03;4.68;;;12.90;71.00;;;8.26;100.00;95336.25;4969494;28;20022;-52
2024/03/18 06:41:11;;;;;;;9.07;5.15;;;12.90;71.00;;;8.26;100.00;95333.59;4972110;28;20038;-54
2024/03/18 06:43:38;;;;;;;12.00;4.82;;;13.00;71.00;;;8.27;100.00;95329.91;4972285;28;20413;-53
2024/03/18 06:46:05;;;;;;;26.13;5.35;;;13.00;71.00;;;8.27;100.00;95323.78;4971155;28;20044;-53
2024/03/18 06:48:32;;;;;;;11.10;5.15;;;13.00;70.90;;;8.30;100.00;95328.56;4971377;28;20113;-53
2024/03/18 06:50:59;;;;;;;7.38;4.97;;;13.00;70.90;;;8.29;100.00;95327.78;4970697;28;20095;-52
2024/03/18 06:53:24;;;;;;;9.13;5.35;;;13.00;70.90;;;8.31;100.00;95331.00;4971432;28;20048;-55
2024/03/18 06:55:51;;;;;;;8.13;5.28;;;13.00;70.90;;;8.30;100.00;95324.09;4971661;28;20042;-54
2024/03/18 06:58:21;;;;;;;11.82;5.00;;;13.00;70.90;;;8.31;100.00;95322.22;4970566;28;20019;-53
2024/03/18 07:00:47;;;;;;;11.13;5.47;;;13.10;71.00;;;8.34;100.00;95322.50;4972013;28;20044;-55
2024/03/18 07:03:13;;;;;;;26.60;5.70;;;13.00;71.00;;;8.36;100.00;95322.25;4970618;28;20469;-54
2024/03/18 07:05:39;;;;;;;9.45;4.72;;;13.00;71.00;;;8.34;100.00;95322.50;4972008;28;20049;-56
2024/03/18 07:08:05;;;;;;;8.00;3.90;;;13.00;71.00;;;8.36;100.00;95316.94;4969990;28;20033;-55
2024/03/18 07:10:31;;;;;;;6.47;4.00;;;13.00;71.10;;;8.37;100.00;95312.44;4971772;28;20080;-57
2024/03/18 07:12:56;;;;;;;8.05;3.90;;;13.00;71.10;;;8.37;100.00;95312.44;4971381;28;20030;-51
2024/03/18 07:15:22;;;;;;;7.05;3.88;;;13.00;71.00;;;8.38;100.00;95327.31;4970180;28;20038;-53
2024/03/18 07:17:48;;;;;;;8.93;3.88;;;13.00;71.00;;;8.39;100.00;95319.09;4971114;28;20080;-57
2024/03/18 07:20:14;;;;;;;6.00;4.43;;;13.10;71.10;;;8.41;100.00;95311.69;4970435;28;20045;-53
2024/03/18 07:22:42;;;;;;;6.75;4.13;;;13.10;71.10;;;8.39;100.00;95303.19;4970332;28;20026;-54
2024/03/18 07:25:11;;;;;;;8.35;3.90;;;13.10;71.10;;;8.41;100.00;95311.69;4971146;28;20033;-57
2024/03/18 07:27:38;;;;;;;8.70;3.88;;;13.10;71.00;;;8.39;100.00;95305.84;4969880;28;20030;-57
2024/03/18 07:30:07;;;;;;;6.75;3.60;;;13.10;70.90;;;8.40;100.00;95314.59;4971213;28;20525;-51
2024/03/18 07:32:34;;;;;;;9.20;3.30;;;13.20;71.10;;;8.42;100.00;95310.63;4969948;28;20065;-54
2024/03/18 07:35:00;;;;;;;6.40;3.40;;;13.20;71.00;;;8.47;100.00;95309.88;4970702;28;20029;-51
2024/03/18 07:37:26;;;;;;;6.22;3.53;;;13.20;71.00;;;8.49;100.00;95307.75;4971716;28;20350;-52
2024/03/18 07:39:52;;;;;;;5.78;3.42;;;13.20;71.00;;;8.51;100.00;95298.47;4970159;28;20021;-52
2024/03/18 07:42:18;;;;;;;4.40;2.95;;;13.20;71.00;;;8.53;100.00;95301.69;4970865;28;20026;-52
2024/03/18 07:44:44;;;;;;;6.90;3.00;;;13.30;71.00;;;8.51;100.00;95310.94;4970659;28;20018;-51
2024/03/18 07:47:09;;;;;;;7.03;2.95;;;13.20;71.00;;;8.51;100.00;95311.75;4970711;28;20029;-53
2024/03/18 07:49:39;;;;;;;5.97;2.80;;;13.30;71.00;;;8.52;100.00;95301.91;4970712;28;20029;-53
2024/03/18 07:52:06;;;;;;;3.95;2.88;;;13.20;71.00;;;8.51;100.00;95303.78;4967816;28;20481;-54
2024/03/18 07:54:36;;;;;;;5.60;2.80;;;13.20;71.00;;;8.55;100.00;95301.41;4971406;28;20022;-52
2024/03/18 07:57:02;;;;;;;4.35;2.50;;;13.30;71.10;;;8.55;100.00;95310.19;4969674;28;20445;-52
2024/03/18 07:59:29;;;;;;;3.53;2.40;;;13.20;71.00;;;8.49;100.00;95308.56;4970514;28;20044;-54
2024/03/18 08:01:55;;;;;;;5.45;2.40;;;13.20;70.90;;;8.53;100.00;95306.19;4970243;28;20405;-53
2024/03/18 08:04:21;;;;;;;6.20;2.88;;;13.30;71.00;;;8.53;100.00;95295.56;4970313;28;20061;-53
2024/03/18 08:06:47;;;;;;;5.00;2.72;;;13.30;71.00;;;8.54;100.00;95292.66;4968000;28;20108;-53
2024/03/18 08:09:19;;;;;;;4.65;2.65;;;13.30;71.00;;;8.51;100.00;95308.31;4969827;28;20145;-51
2024/03/18 08:11:48;;;;;;;3.47;2.60;;;13.30;71.00;;;8.52;100.00;95293.97;4970335;28;20053;-54
2024/03/18 08:14:14;;;;;;;4.28;2.85;;;13.30;70.80;;;8.56;100.00;95295.06;4970758;28;20014;-53
2024/03/18 08:16:42;;;;;;;6.63;3.38;;;13.30;70.90;;;8.57;100.00;95294.78;4969998;28;20026;-54
2024/03/18 08:19:08;;;;;;;4.55;3.00;;;13.30;70.90;;;8.61;100.00;95296.94;4970615;28;20034;-53
2024/03/18 08:21:34;;;;;;;3.58;2.53;;;13.30;70.90;;;8.61;100.00;95295.06;4969899;28;20041;-51
2024/03/18 08:24:02;;;;;;;3.25;2.42;;;13.40;70.90;;;8.65;100.00;95298.81;4970556;28;20106;-51
2024/03/18 08:26:28;;;;;;;6.10;2.90;;;13.30;70.80;;;8.65;100.00;95300.66;4969240;28;20055;-53
2024/03/18 08:28:55;;;;;;;3.75;2.50;;;13.40;70.90;;;8.66;100.00;95304.94;4970516;28;20014;-53
2024/03/18 08:31:21;;;;;;;8.73;4.72;;;13.40;70.90;;;8.63;100.00;95298.28;4971111;28;20030;-51
2024/03/18 08:33:47;;;;;;;7.00;3.50;;;13.40;70.90;;;8.65;100.00;95300.66;4969433;28;20026;-55
2024/03/18 08:36:13;;;;;;;4.85;3.00;;;13.40;70.80;;;8.66;100.00;95304.94;4970934;28;20485;-52
2024/03/18 08:38:39;;;;;;;5.90;2.92;;;13.40;70.80;;;8.67;100.00;95306.50;4967338;28;20026;-51
2024/03/18 08:41:05;;;;;;;3.90;2.85;;;13.40;70.80;;;8.69;100.00;95301.75;4969053;28;20034;-52
2024/03/18 08:43:31;;;;;;;4.68;2.97;;;13.50;70.80;;;8.67;100.00;95309.16;4970833;28;20129;-54
2024/03/18 08:45:58;;;;;;;5.35;3.35;;;13.40;70.70;;;8.65;100.00;95305.97;4972504;28;20030;-56
2024/03/18 08:48:24;;;;;;;4.03;3.38;;;13.40;70.70;;;8.66;100.00;95315.56;4973770;28;20031;-53
2024/03/18 08:50:50;;;;;;;5.63;3.15;;;13.50;70.80;;;8.70;100.00;95313.97;4973446;28;20053;-54
2024/03/18 08:53:16;;;;;;;6.45;3.35;;;13.50;70.90;;;8.71;100.00;95315.56;4973649;28;20109;-53
2024/03/18 08:55:46;;;;;;;5.70;3.17;;;13.50;70.70;;;8.77;100.00;95317.19;4985340;23;20501;-54
2024/03/18 08:58:13;;;;;;;6.47;3.03;;;13.50;70.90;;;8.76;100.00;95319.03;4972032;28;20056;-57
2024/03/18 09:00:39;;;;;;;4.15;2.75;;;13.50;70.90;;;8.77;100.00;95318.00;4972822;28;20130;-58
2024/03/18 09:03:05;;;;;;;5.40;3.10;;;13.50;70.70;;;8.79;100.00;95326.50;4973433;28;20378;-56
2024/03/18 09:05:31;;;;;;;6.60;3.15;;;13.50;70.70;;;8.78;100.00;95324.91;4971194;28;20030;-55
2024/03/18 09:07:59;;;;;;;5.43;3.28;;;13.60;70.80;;;8.78;100.00;95326.75;4957148;28;20564;-57
2024/03/18 09:10:25;;;;;;;4.38;3.00;;;13.60;70.80;;;8.81;100.00;95328.91;4954499;28;20349;-58
2024/03/18 09:12:51;;;;;;;5.13;3.25;;;13.60;70.70;;;8.82;100.00;95332.34;4954605;28;20019;-57
2024/03/18 09:15:17;;;;;;;6.45;3.10;;;13.60;70.70;;;8.81;100.00;95336.88;4960564;28;20030;-55
2024/03/18 09:17:44;;;;;;;5.28;2.80;;;13.50;70.70;;;8.85;100.00;95340.59;4955478;28;20027;-52
2024/03/18 09:20:13;;;;;;;7.07;3.08;;;13.50;70.80;;;8.84;100.00;95344.31;4957599;28;20396;-55
2024/03/18 09:22:40;;;;;;;3.17;2.38;;;13.50;70.90;;;8.84;100.00;95343.50;4953095;28;20046;-52
2024/03/18 09:25:09;;;;;;;5.85;3.20;;;13.50;71.00;;;8.82;100.00;95350.94;4957751;28;20457;-54
2024/03/18 09:27:36;;;;;;;6.20;3.40;;;13.50;71.10;;;8.85;100.00;95353.09;4952275;28;20022;-50
2024/03/18 09:30:03;;;;;;;4.97;3.13;;;13.50;71.10;;;8.86;100.00;95352.81;4959025;28;20057;-53
2024/03/18 09:32:29;;;;;;;10.60;2.92;;;13.50;71.20;;;8.86;100.00;95363.44;4955191;28;20472;-55
2024/03/18 09:34:55;;;;;;;3.92;2.45;;;13.50;71.20;;;8.87;100.00;95357.09;4957284;28;20023;-53
2024/03/18 09:37:21;;;;;;;5.47;2.50;;;13.50;71.20;;;8.91;100.00;95360.81;4956512;28;20500;-51
2024/03/18 09:39:47;;;;;;;4.63;2.42;;;13.60;71.20;;;8.91;100.00;95358.16;4953036;28;20040;-55
2024/03/18 09:42:18;;;;;;;4.50;2.20;;;13.60;71.20;;;8.86;100.00;95363.44;4957345;28;20042;-56
2024/03/18 09:44:45;;;;;;;3.17;2.42;;;13.70;71.30;;;8.92;100.00;95369.56;4953873;28;20397;-56
2024/03/18 09:47:32;;;;;;;2.13;1.80;;;13.70;71.20;;;8.94;100.00;95367.47;4951932;28;20029;-58
2024/03/18 09:49:58;;;;;;;3.03;1.77;;;13.80;71.30;;;8.98;100.00;95368.53;4952858;28;20498;-53
2024/03/18 09:52:38;;;;;;;3.05;1.58;;;13.80;71.00;;;9.00;100.00;95372.53;4952181;28;20129;-58
2024/03/18 09:55:25;;;;;;;2.08;1.50;;;13.90;71.10;;;9.02;100.00;95372.28;4947634;28;20520;-58
2024/03/18 09:57:52;;;;;;;2.97;1.80;;;13.90;71.00;;;9.03;100.00;95381.84;4949594;28;20046;-54
2024/03/18 10:00:21;;;;;;;3.05;1.70;;;13.90;70.80;;;9.09;100.00;95383.47;4952524;28;20042;-58
2024/03/18 10:02:48;;;;;;;3.88;1.75;;;14.00;70.90;;;9.17;100.00;95384.81;4954784;28;20022;-57
2024/03/18 10:05:14;;;;;;;3.35;1.83;;;14.00;70.80;;;9.18;100.00;95386.41;4958024;28;20030;-56
2024/03/18 10:07:44;;;;;;;5.28;1.65;;;14.00;70.70;;;9.15;100.00;95393.06;4956199;28;20018;-53
2024/03/18 10:10:21;;;;;;;2.08;1.42;;;14.10;70.80;;;9.18;100.00;95387.25;4953502;28;20445;-57
2024/03/18 10:12:50;;;;;;;2.53;1.42;;;14.10;70.80;;;9.24;100.00;95396.00;4958140;28;20035;-54
2024/03/18 10:15:17;;;;;;;2.65;1.38;;;14.10;70.70;;;9.26;100.00;95407.19;4955475;28;20030;-55
2024/03/18 10:17:44;;;;;;;1.80;1.35;;;14.20;70.80;;;9.25;100.00;95406.41;4958306;28;20049;-56